createdAt,value
2018-04-18T00:05:24.166Z,9.87
2018-04-18T00:11:14.876Z,13.96
2018-04-18T00:17:05.549Z,15.16
2018-04-18T00:22:56.215Z,13.59
2018-04-18T00:28:46.892Z,16.14
2018-04-18T00:35:40.718Z,7.63
2018-04-18T00:40:28.247Z,8.72
2018-04-18T00:46:18.945Z,7.75
2018-04-18T00:52:09.689Z,8.97
2018-04-18T00:58:00.302Z,7.86
2018-04-18T01:03:50.955Z,13.28
2018-04-18T01:09:41.638Z,10.85
2018-04-18T01:15:32.322Z,6.9
2018-04-18T01:21:23.022Z,7.22
2018-04-18T01:27:13.685Z,12.71
2018-04-18T01:33:04.347Z,10.01
2018-04-18T01:38:55.043Z,10.77
2018-04-18T01:44:45.769Z,9.83
2018-04-18T01:50:36.385Z,11.06
2018-04-18T01:56:27.060Z,14.64
2018-04-18T02:02:17.713Z,13.35
2018-04-18T02:08:08.332Z,10.1
2018-04-18T02:13:59.153Z,10.86
2018-04-18T02:19:49.702Z,9.95
2018-04-18T02:25:40.372Z,13.2
2018-04-18T02:31:31.025Z,11.23
2018-04-18T02:37:21.704Z,12.46
2018-04-18T02:43:12.380Z,10.03
2018-04-18T02:49:03.030Z,15.68
2018-04-18T02:54:53.756Z,10.78
2018-04-18T03:00:44.392Z,9.37
2018-04-18T03:06:35.064Z,9.54
2018-04-18T03:12:25.747Z,11.61
2018-04-18T03:18:16.422Z,13.01
2018-04-18T03:24:07.053Z,10.34
2018-04-18T03:29:57.768Z,12.83
2018-04-18T03:35:48.436Z,8.52
2018-04-18T03:41:39.056Z,8.35
2018-04-18T03:47:29.733Z,11.33
2018-04-18T03:53:20.400Z,10.52
2018-04-18T03:59:11.014Z,15.07
2018-04-18T04:05:01.708Z,9.07
2018-04-18T04:10:52.369Z,11.08
2018-04-18T04:16:43.029Z,9.83
2018-04-18T04:22:33.635Z,10
2018-04-18T04:28:24.291Z,8.89
2018-04-18T04:34:15.008Z,8.45
2018-04-18T04:40:05.771Z,10.5
2018-04-18T04:45:56.233Z,12.1
2018-04-18T04:51:46.893Z,13.28
2018-04-18T04:57:37.551Z,14.2
2018-04-18T05:03:28.269Z,13.05
2018-04-18T05:09:18.885Z,10.79
2018-04-18T05:15:09.513Z,9.71
2018-04-18T05:21:00.205Z,12.29
2018-04-18T05:26:50.841Z,12.48
2018-04-18T05:32:41.485Z,10.49
2018-04-18T05:38:32.115Z,9.61
2018-04-18T05:44:22.814Z,18.99
2018-04-18T05:50:13.446Z,14.8
2018-04-18T05:56:04.111Z,10.28
2018-04-18T06:01:54.750Z,14.41
2018-04-18T06:07:45.433Z,19.23
2018-04-18T06:13:36.066Z,13.15
2018-04-18T06:19:26.764Z,13.18
2018-04-18T06:25:17.457Z,10.95
2018-04-18T06:31:08.111Z,9.46
2018-04-18T06:36:58.797Z,13.58
2018-04-18T06:42:49.436Z,20.64
2018-04-18T06:48:40.127Z,16.4
2018-04-18T06:54:30.769Z,11.1
2018-04-18T07:00:21.433Z,15.5
2018-04-18T07:06:12.116Z,17.19
2018-04-18T07:12:02.840Z,26.66
2018-04-18T07:17:53.509Z,60.55
2018-04-18T07:23:44.145Z,29.11
2018-04-18T07:29:34.876Z,13.11
2018-04-18T07:35:25.528Z,17.74
2018-04-18T07:41:16.220Z,10.4
2018-04-18T07:47:06.909Z,8.67
2018-04-18T07:52:57.637Z,4.89
2018-04-18T07:58:48.334Z,7.57
2018-04-18T08:04:39.036Z,6.11
2018-04-18T08:10:29.793Z,6.23
2018-04-18T08:16:20.459Z,4.41
2018-04-18T08:22:11.210Z,3.16
2018-04-18T08:28:01.890Z,7.2
2018-04-18T08:33:52.679Z,3.3
2018-04-18T08:39:43.308Z,6.51
2018-04-18T08:45:34.049Z,8.02
2018-04-18T08:51:24.758Z,6.35
2018-04-18T08:57:15.531Z,8.51
2018-04-18T09:03:06.186Z,3.6
2018-04-18T09:08:56.957Z,3.28
2018-04-18T09:14:47.643Z,7.31
2018-04-18T09:20:38.375Z,3.39
2018-04-18T09:26:29.104Z,3.55
2018-04-18T09:32:19.826Z,4.03
2018-04-18T09:38:10.536Z,10.27
2018-04-18T09:44:01.269Z,9.66
2018-04-18T09:49:52.006Z,5.8
2018-04-18T09:55:42.721Z,4.94
2018-04-18T10:01:33.440Z,8.55
2018-04-18T10:07:24.200Z,7.72
2018-04-18T10:13:14.943Z,5.38
2018-04-18T10:19:05.667Z,8.15
2018-04-18T10:24:56.391Z,8.88
2018-04-18T10:30:47.085Z,9.84
2018-04-18T10:36:37.872Z,8.06
2018-04-18T10:42:28.563Z,4.55
2018-04-18T10:48:19.266Z,3.37
2018-04-18T10:54:10.038Z,6.12
2018-04-18T11:00:00.749Z,3.16
2018-04-18T11:05:51.529Z,6.38
2018-04-18T11:11:42.252Z,6.28
2018-04-18T11:17:32.974Z,3.4
2018-04-18T11:23:23.719Z,5.23
2018-04-18T11:29:14.417Z,4.34
2018-04-18T11:35:05.222Z,6.23
2018-04-18T11:40:55.946Z,5.27
2018-04-18T11:46:46.736Z,7.31
2018-04-18T11:52:37.458Z,7.93
2018-04-18T11:58:28.174Z,5.93
2018-04-18T12:04:18.947Z,4.32
2018-04-18T12:10:09.688Z,8.79
2018-04-18T12:16:00.441Z,6.8
2018-04-18T12:21:51.357Z,7.82
2018-04-18T12:27:41.997Z,7.35
2018-04-18T12:33:32.780Z,3.49
2018-04-18T12:39:23.591Z,7.14
2018-04-18T12:45:14.322Z,5.7
2018-04-18T12:51:05.169Z,3.02
2018-04-18T12:56:55.922Z,4.8
2018-04-18T13:02:47.075Z,3.37
2018-04-18T13:08:37.535Z,5.56
2018-04-18T13:14:28.339Z,4.69
2018-04-18T13:20:19.216Z,2.64
2018-04-18T13:26:10.039Z,5.4
2018-04-18T13:32:00.881Z,8.7
2018-04-18T13:37:51.767Z,4.39
2018-04-18T13:43:42.515Z,4.83
2018-04-18T13:49:33.365Z,3.23
2018-04-18T13:55:24.241Z,3.53
2018-04-18T14:01:15.031Z,3.08
2018-04-18T14:07:05.856Z,6.72
2018-04-18T14:12:56.657Z,8.27
2018-04-18T14:18:47.503Z,4.22
2018-04-18T14:24:38.326Z,4.19
2018-04-18T14:30:29.275Z,4.68
2018-04-18T14:36:19.976Z,4.93
2018-04-18T14:42:10.765Z,2.99
2018-04-18T14:48:01.609Z,6.94
2018-04-18T14:53:52.352Z,4.32
2018-04-18T14:59:43.151Z,6.09
2018-04-18T15:05:33.952Z,5.49
2018-04-18T15:11:24.698Z,5.28
2018-04-18T15:17:15.420Z,11.37
2018-04-18T15:23:06.285Z,5.89
2018-04-18T15:28:56.981Z,7.55
2018-04-18T15:34:47.741Z,6.86
2018-04-18T15:40:38.497Z,5.23
2018-04-18T15:46:29.257Z,6.75
2018-04-18T15:52:20.005Z,5.87
2018-04-18T15:58:10.815Z,10.1
2018-04-18T16:04:01.509Z,5.95
2018-04-18T16:09:52.270Z,10.32
2018-04-18T16:15:43.051Z,12.84
2018-04-18T16:21:33.750Z,19.83
2018-04-18T16:27:24.551Z,7.02
2018-04-18T16:33:15.334Z,6.64
2018-04-18T16:39:06.116Z,5.75
2018-04-18T16:44:56.808Z,11.84
2018-04-18T16:50:47.562Z,15.67
2018-04-18T16:56:38.282Z,7.47
2018-04-18T17:02:29.013Z,13.94
2018-04-18T17:08:19.767Z,12.41
2018-04-18T17:14:10.483Z,9.13
2018-04-18T17:20:01.270Z,8.05
2018-04-18T17:25:52.001Z,6.4
2018-04-18T17:31:42.706Z,8
2018-04-18T17:37:33.465Z,7.06
2018-04-18T17:43:24.195Z,5.47
2018-04-18T17:49:14.894Z,5.73
2018-04-18T17:55:05.679Z,7.43
2018-04-18T18:00:56.399Z,7.16
2018-04-18T18:06:47.106Z,5.62
2018-04-18T18:12:37.890Z,5.45
2018-04-18T18:18:28.629Z,4.96
2018-04-18T18:24:19.304Z,7.01
2018-04-18T18:30:10.032Z,5.93
2018-04-18T18:36:00.746Z,7.06
2018-04-18T18:41:51.463Z,5.79
2018-04-18T18:47:42.161Z,10.36
2018-04-18T18:53:32.863Z,8.84
2018-04-18T18:59:23.671Z,8.19
2018-04-18T19:05:14.348Z,5.64
2018-04-18T19:11:05.032Z,5.24
2018-04-18T19:16:55.778Z,7.62
2018-04-18T19:22:46.490Z,7.38
2018-04-18T19:28:37.372Z,5.5
2018-04-18T19:34:27.946Z,5.51
2018-04-18T19:40:18.672Z,9.45
2018-04-18T19:46:09.320Z,7.14
2018-04-18T19:52:00.054Z,4.62
2018-04-18T19:57:50.803Z,5.65
2018-04-18T20:03:41.486Z,7.2
2018-04-18T20:09:32.177Z,5.61
2018-04-18T20:15:22.905Z,5.18
2018-04-18T20:21:13.577Z,5.74
2018-04-18T20:27:04.278Z,5.11
2018-04-18T20:32:55.039Z,5.17
2018-04-18T20:38:45.816Z,6.34
2018-04-18T20:44:36.427Z,5.65
2018-04-18T20:50:27.218Z,3.85
2018-04-18T20:56:17.860Z,7.57
2018-04-18T21:02:08.552Z,5.77
2018-04-18T21:07:59.304Z,6.19
2018-04-18T21:13:49.990Z,7
2018-04-18T21:19:40.663Z,5.1
2018-04-18T21:25:31.367Z,6.97
2018-04-18T21:31:22.079Z,4.53
2018-04-18T21:37:12.808Z,7.34
2018-04-18T21:43:03.482Z,5.72
2018-04-18T21:48:54.169Z,4.89
2018-04-18T21:54:44.937Z,3.96
2018-04-18T22:00:35.592Z,3.9
2018-04-18T22:06:26.313Z,6.22
2018-04-18T22:12:17.006Z,5.34
2018-04-18T22:16:38.819Z,5.08
2018-04-18T22:22:28.788Z,5.68
2018-04-18T22:28:18.836Z,7.9
2018-04-18T22:34:08.841Z,5.54
2018-04-18T22:39:59.025Z,4.73
2018-04-18T22:45:49.086Z,6.67
2018-04-18T22:57:29.267Z,4.38
2018-04-18T23:03:19.436Z,6.48
2018-04-18T23:09:09.414Z,8.82
2018-04-18T23:14:59.655Z,7.64
2018-04-18T23:26:39.834Z,6.07
2018-04-18T23:32:29.826Z,9.36
2018-04-18T23:38:20.040Z,5.04
2018-04-18T23:50:00.282Z,7.72
2018-04-18T23:55:50.222Z,5.76
